EDT,Max TemperatureF,Mean TemperatureF,Min TemperatureF,Max Dew PointF,MeanDew PointF,Min DewpointF,Max Humidity, Mean Humidity, Min Humidity, Max Sea Level PressureIn, Mean Sea Level PressureIn, Min Sea Level PressureIn, Max VisibilityMiles, Mean VisibilityMiles, Min VisibilityMiles, Max Wind SpeedMPH, Mean Wind SpeedMPH, Max Gust SpeedMPH,PrecipitationIn, CloudCover, Events, WindDirDegrees
2012-5-1,56,52,48,53,49,46,99,87,74,30.07,30.00,29.91,10,6,0,13,5,,0.00,7,Fog,121
2012-5-2,81,66,50,65,55,48,94,74,37,29.98,29.90,29.82,10,6,2,20,9,28,0.00,4,,179
2012-5-3,85,74,62,65,61,55,96,69,42,29.99,29.94,29.84,10,10,2,23,7,39,0.00,4,Rain,209
2012-5-4,74,66,57,65,62,54,98,89,65,30.03,29.96,29.93,10,8,3,14,4,,0.00,6,Rain,78
2012-5-5,69,60,50,54,50,46,91,75,53,30.11,30.05,29.98,10,10,3,9,6,,0.00,7,,34
2012-5-6,67,60,52,50,41,32,88,54,30,30.13,30.07,29.98,10,10,5,13,4,16,0.00,4,Rain,104
2012-5-7,65,57,49,60,53,44,94,85,75,30.00,29.88,29.80,10,8,2,10,5,,0.00,8,Rain,126
2012-5-8,70,60,50,56,48,39,96,69,40,29.83,29.81,29.78,10,8,2,20,7,25,0.00,3,,294
2012-5-9,61,54,46,49,45,40,87,75,54,29.87,29.81,29.77,10,10,5,14,5,21,0.00,5,Rain,282
2012-5-10,63,50,37,40,33,28,85,54,26,30.00,29.92,29.86,10,10,10,13,6,23,0.00,1,,308
2012-5-11,72,56,39,39,36,32,83,48,25,30.15,30.11,30.01,10,10,10,12,6,16,0.00,0,,243
2012-5-12,64,60,57,60,50,34,97,70,38,30.22,30.18,30.13,10,8,2,12,4,,0.00,7,Rain,226
2012-5-13,67,58,49,58,48,38,97,73,38,30.25,30.18,30.11,10,8,1,10,2,,0.00,5,Rain,53
2012-5-14,73,59,45,53,41,28,97,57,20,30.11,30.06,30.01,10,9,5,8,1,,0.00,0,,275
2012-5-15,79,63,47,51,43,39,80,47,26,30.02,29.93,29.82,10,10,10,24,4,47,0.00,1,,234
2012-5-16,62,55,48,55,39,30,90,55,33,30.14,30.01,29.88,10,10,4,14,6,22,0.00,2,Rain,343
2012-5-17,66,52,38,43,37,32,93,56,31,30.23,30.17,30.12,10,10,10,9,1,,0.00,0,,85
2012-5-18,75,60,45,46,41,34,90,53,26,30.17,30.12,30.06,10,10,10,9,4,,0.00,0,,148
2012-5-19,84,67,50,50,44,38,81,45,23,30.15,30.12,30.09,10,10,10,13,4,,0.00,0,,144
2012-5-20,87,72,56,55,50,46,78,46,24,30.16,30.10,30.00,10,10,10,13,6,17,0.00,0,,153
2012-5-21,70,63,55,60,55,48,94,73,50,30.04,30.02,30.00,10,9,4,10,5,,0.00,4,Rain,309
2012-5-22,68,59,50,50,47,41,84,68,40,30.04,29.99,29.93,10,10,10,9,4,,0.00,5,,358
2012-5-23,77,60,43,56,47,42,99,64,29,29.98,29.92,29.85,10,9,0,12,1,16,0.00,1,Fog,151
2012-5-24,84,70,55,59,56,48,94,61,37,29.94,29.86,29.77,10,9,5,17,9,26,0.00,1,,150
2012-5-25,82,72,63,60,52,44,61,46,26,30.14,29.95,29.82,10,10,7,18,9,23,0.00,1,,244
2012-5-26,73,66,60,58,53,44,86,63,44,30.27,30.19,30.11,10,10,7,13,4,,0.00,5,Rain,104
2012-5-27,82,70,58,61,56,51,84,62,43,30.13,30.06,29.95,10,10,10,18,8,34,0.00,2,,105
2012-5-28,92,80,67,64,59,54,82,54,29,29.95,29.85,29.75,10,10,7,16,7,28,0.00,1,,203
2012-5-29,82,72,61,63,49,37,86,46,20,29.83,29.77,29.71,10,10,10,21,9,29,0.00,1,Rain,264
2012-5-30,71,60,49,48,43,37,85,54,29,29.92,29.85,29.82,10,10,10,14,6,20,0.00,3,,294
2012-5-31,58,52,46,49,44,39,91,75,60,30.02,29.96,29.86,10,10,5,10,4,17,0.00,6,Rain,24